Main page
METAR-TAF:

METAR-TAF

Airports :

Toulouse–Blagnac Airport

Toulouse, France

latitude: 43-38N, longitude: 001-22E, elevation: 152 m

Current weather observation

The report was made 34 minutes ago, at 19:30 UTC
Wind 10 kt from the West
Temperature 2°C
Humidity 75%
Pressure 1033 hPa
Visibility 10 km or more
no clouds below 1500 m and no cumulonimbus

METAR: LFBO 211930Z AUTO 26010KT CAVOK 02/M02 Q1033 NOSIG

Time: 21:04 (20:04 UTC)

Forecast

The report was made 3 hours and 4 minutes ago, at 17:00 UTC
Forecast valid from 21 at 18 UTC to 22 at 24 UTC
Wind 5 kt from the West
Visibility 10 km or more
no clouds below 1500 m and no cumulonimbus
Becoming
from 22 at 05 UTC to 22 at 07 UTC
Wind 3 kt from variable directions
Becoming
from 22 at 12 UTC to 22 at 14 UTC
Wind 5 kt from the West/Northwest
Becoming
from 22 at 21 UTC to 22 at 23 UTC
Wind 2 kt from variable directions

TAF: LFBO 211700Z 2118/2224 27005KT CAVOK BECMG 2205/2207 VRB03KT BECMG 2212/2214 30005KT BECMG 2221/2223 VRB02KT

Weather observations and forecasts of more than 4000 airports (METAR and TAF reports).

The available stations are represented by yellow and red dots on the map.

Hover mouse over dot to see the name of the station.

Then click to see weather observations and forecasts.

To change the map : click on the green buttons with a black cross to zoom in, on the green button with a dash to zoom out, or on the green arrows for adjacent maps.


METAR-TAF: